Time;durP1;ratioP1;P1;durP2;ratioP2;P2;SDS_P1;SDS_P2;PMS_P1;PMS_P2;Temp;Humidity;BMP_temperature;BMP_pressure;BME280_temperature;BME280_humidity;BME280_pressure;Samples;Min_cycle;Max_cycle;Signal;HPM_P1;HPM_P2
2021/12/07 00:00:45;;;;;;;45.65;26.20;;;2.20;99.90;;;;;;2103657;67;20337;-72
2021/12/07 00:03:27;;;;;;;42.17;25.30;;;2.10;99.90;;;;;;2101218;68;20171;-71
2021/12/07 00:06:09;;;;;;;38.42;23.95;;;2.10;99.90;;;;;;2097349;68;20187;-72
2021/12/07 00:08:54;;;;;;;52.58;27.83;;;2.10;99.90;;;;;;2100069;68;20337;-72
2021/12/07 00:11:40;;;;;;;49.30;26.67;;;2.80;99.90;;;;;;2103054;68;20216;-70
2021/12/07 00:14:32;;;;;;;44.17;25.38;;;2.00;99.90;;;;;;2102634;68;20186;-70
2021/12/07 00:17:24;;;;;;;53.28;29.20;;;2.00;99.90;;;;;;2108512;67;20348;-70
2021/12/07 00:20:11;;;;;;;53.20;27.63;;;2.00;99.90;;;;;;2117898;67;20421;-70
2021/12/07 00:22:56;;;;;;;49.95;28.35;;;2.00;99.90;;;;;;2105610;67;20447;-71
2021/12/07 00:25:38;;;;;;;51.15;28.30;;;2.00;99.90;;;;;;2104759;67;20594;-70
2021/12/07 00:28:23;;;;;;;42.60;24.00;;;1.90;99.90;;;;;;2109292;67;20759;-72
2021/12/07 00:31:23;;;;;;;52.75;27.65;;;2.00;99.90;;;;;;2104898;67;20242;-72
2021/12/07 00:34:24;;;;;;;51.63;27.52;;;1.90;99.90;;;;;;2110336;67;20303;-71
2021/12/07 00:37:08;;;;;;;55.38;27.98;;;1.90;99.90;;;;;;2114229;67;20181;-71
2021/12/07 00:39:50;;;;;;;42.70;25.05;;;1.90;99.90;;;;;;2111488;67;20608;-71
2021/12/07 00:42:34;;;;;;;41.70;24.13;;;1.90;99.90;;;;;;2098860;68;20347;-71
2021/12/07 00:45:21;;;;;;;39.83;24.83;;;1.90;99.90;;;;;;2101563;68;20862;-70
2021/12/07 00:48:07;;;;;;;42.05;23.52;;;1.80;99.90;;;;;;2099944;68;20678;-71
2021/12/07 00:50:54;;;;;;;39.97;22.50;;;1.80;99.90;;;;;;2095585;68;20848;-70
2021/12/07 00:53:36;;;;;;;37.67;21.38;;;1.70;99.90;;;;;;2097488;68;20277;-70
2021/12/07 00:56:21;;;;;;;52.83;29.40;;;1.70;99.90;;;;;;2097185;68;20756;-70
2021/12/07 00:59:06;;;;;;;42.92;23.95;;;1.60;99.90;;;;;;2096640;68;20238;-71
2021/12/07 01:01:48;;;;;;;40.28;23.52;;;1.50;99.90;;;;;;2095720;67;20359;-71
2021/12/07 01:04:31;;;;;;;52.42;26.55;;;1.50;99.90;;;;;;2098577;68;20324;-70
2021/12/07 01:07:24;;;;;;;47.90;26.25;;;1.40;99.90;;;;;;2096857;68;20388;-70
2021/12/07 01:24:51;;;;;;;39.47;23.10;;;1.20;99.90;;;;;;2109547;67;20177;-71
2021/12/07 01:27:32;;;;;;;52.22;28.20;;;1.20;99.90;;;;;;2129015;67;20328;-69
2021/12/07 01:30:35;;;;;;;43.78;25.88;;;1.20;99.90;;;;;;2128971;67;20383;-70
2021/12/07 01:59:37;;;;;;;50.47;28.52;;;1.10;99.90;;;;;;2076161;69;20176;-72
2021/12/07 02:02:30;;;;;;;45.75;26.35;;;1.10;99.90;;;;;;2089431;68;20308;-70
2021/12/07 02:05:12;;;;;;;50.60;28.13;;;1.10;99.90;;;;;;2084290;68;20790;-71
2021/12/07 02:07:58;;;;;;;47.28;26.73;;;1.00;99.90;;;;;;2088848;68;20257;-71
2021/12/07 02:10:41;;;;;;;40.70;25.08;;;1.00;99.90;;;;;;2092894;68;20213;-71
2021/12/07 02:16:12;;;;;;;53.28;28.63;;;1.00;99.90;;;;;;2111411;67;20314;-71
2021/12/07 02:18:56;;;;;;;59.70;32.53;;;1.00;99.90;;;;;;2109177;67;20330;-71
2021/12/07 02:21:40;;;;;;;52.42;28.05;;;1.00;99.90;;;;;;2115315;67;20344;-72
2021/12/07 02:24:22;;;;;;;55.75;29.48;;;1.10;99.90;;;;;;2118573;67;20321;-71
2021/12/07 02:27:04;;;;;;;50.28;25.55;;;1.00;99.90;;;;;;2118587;67;20188;-70
2021/12/07 02:29:46;;;;;;;44.65;26.98;;;1.00;99.90;;;;;;2114547;67;20259;-71
2021/12/07 02:32:28;;;;;;;46.03;25.10;;;1.00;99.90;;;;;;2112033;67;20334;-71
2021/12/07 02:35:12;;;;;;;47.15;25.75;;;1.00;99.90;;;;;;2108420;67;20629;-70
2021/12/07 02:37:55;;;;;;;42.85;25.98;;;1.00;99.90;;;;;;2090402;68;20200;-71
2021/12/07 02:40:37;;;;;;;49.25;27.75;;;1.00;99.90;;;;;;2091017;68;20365;-70
2021/12/07 02:43:21;;;;;;;44.85;25.02;;;1.00;99.90;;;;;;2098026;68;20660;-71
2021/12/07 02:46:06;;;;;;;54.50;28.92;;;1.00;99.90;;;;;;2097297;68;20315;-70
2021/12/07 02:48:48;;;;;;;48.03;25.92;;;1.00;99.90;;;;;;2104191;67;20203;-71
2021/12/07 02:51:29;;;;;;;42.42;25.48;;;1.00;99.90;;;;;;2104486;68;20218;-72
2021/12/07 02:54:11;;;;;;;44.45;26.77;;;1.10;99.90;;;;;;2113576;67;20356;-70
2021/12/07 02:56:53;;;;;;;41.35;24.20;;;1.10;99.90;;;;;;2103439;67;20234;-72
2021/12/07 02:59:46;;;;;;;42.03;24.80;;;1.10;99.90;;;;;;2096284;68;20187;-71
2021/12/07 03:02:31;;;;;;;45.72;25.88;;;1.10;99.90;;;;;;2110477;67;20602;-71
2021/12/07 03:05:42;;;;;;;57.08;29.27;;;1.10;99.90;;;;;;2096576;68;20183;-72
2021/12/07 03:26:39;;;;;;;45.08;24.40;;;1.00;99.90;;;;;;2103368;68;20248;-72
2021/12/07 03:29:23;;;;;;;42.03;25.00;;;1.10;99.90;;;;;;2110282;67;20339;-72
2021/12/07 03:32:06;;;;;;;41.13;23.08;;;1.10;99.90;;;;;;2131772;67;20646;-71
2021/12/07 03:34:49;;;;;;;39.83;23.50;;;1.10;99.90;;;;;;2124862;67;20280;-72
2021/12/07 03:37:33;;;;;;;38.33;21.73;;;;;;;;;;2127109;67;20330;-71
2021/12/07 03:40:15;;;;;;;50.78;25.50;;;;;;;;;;2114484;67;20338;-71
2021/12/07 03:42:57;;;;;;;44.95;26.15;;;;;;;;;;2104669;68;20373;-72
2021/12/07 03:45:42;;;;;;;41.08;22.35;;;;;;;;;;2099926;68;20227;-71
2021/12/07 03:48:24;;;;;;;45.20;24.95;;;;;;;;;;2106727;67;20236;-71
2021/12/07 03:51:06;;;;;;;38.53;21.98;;;;;;;;;;2103428;67;20786;-73
2021/12/07 03:53:48;;;;;;;49.60;25.52;;;;;;;;;;2105241;67;20319;-72
2021/12/07 03:56:30;;;;;;;51.25;24.50;;;;;;;;;;2104639;68;20233;-73
2021/12/07 03:59:11;;;;;;;39.35;20.70;;;;;;;;;;2102931;68;20355;-72
2021/12/07 04:01:53;;;;;;;39.70;20.83;;;;;;;;;;2097643;68;20737;-72
2021/12/07 04:04:38;;;;;;;36.72;21.90;;;;;;;;;;2085236;68;20228;-71
2021/12/07 04:07:20;;;;;;;43.45;23.20;;;;;;;;;;2084108;68;20372;-72
2021/12/07 04:10:02;;;;;;;39.38;20.73;;;;;;;;;;2090793;68;20437;-71
2021/12/07 04:12:43;;;;;;;58.05;27.70;;;;;;;;;;2095803;68;20195;-71
2021/12/07 04:15:25;;;;;;;37.42;21.30;;;;;;;;;;2097637;68;20222;-73
2021/12/07 04:18:10;;;;;;;44.42;22.05;;;;;;;;;;2097375;68;20307;-72
2021/12/07 04:20:52;;;;;;;43.33;22.27;;;;;;;;;;2090273;68;20400;-72
2021/12/07 04:23:35;;;;;;;44.42;24.20;;;;;;;;;;2097643;68;20292;-73
2021/12/07 04:26:16;;;;;;;62.17;27.42;;;;;;;;;;2093645;68;20717;-72
2021/12/07 04:28:59;;;;;;;34.88;19.83;;;;;;;;;;2100029;68;20195;-72
2021/12/07 04:31:41;;;;;;;43.45;21.88;;;;;;;;;;2107022;67;20265;-72
2021/12/07 04:34:24;;;;;;;39.03;20.63;;;;;;;;;;2093712;68;20219;-72
2021/12/07 04:37:05;;;;;;;40.10;21.20;;;;;;;;;;2104154;68;20770;-72
2021/12/07 04:39:47;;;;;;;45.03;23.42;;;;;;;;;;2103718;68;20351;-73
2021/12/07 04:42:29;;;;;;;37.60;21.05;;;;;;;;;;2090632;68;20188;-72
2021/12/07 04:45:23;;;;;;;40.05;20.70;;;;;;;;;;2097672;68;20212;-72
2021/12/07 04:59:48;;;;;;;50.33;23.90;;;;;;;;;;2118525;67;20673;-73
2021/12/07 05:02:31;;;;;;;40.30;21.25;;;;;;;;;;2106847;67;20358;-71
2021/12/07 05:05:15;;;;;;;42.50;19.83;;;;;;;;;;2111226;67;20714;-72
2021/12/07 05:08:01;;;;;;;41.03;19.92;;;;;;;;;;2118403;67;20337;-73
2021/12/07 05:13:49;;;;;;;52.20;22.38;;;;;;;;;;2124747;67;20247;-72
2021/12/07 05:25:30;;;;;;;28.73;16.25;;;;;;;;;;2125354;67;20173;-71
2021/12/07 05:40:11;;;;;;;32.63;17.42;;;;;;;;;;2107542;67;20255;-72
2021/12/07 05:42:53;;;;;;;42.90;20.77;;;;;;;;;;2093489;67;20604;-72
2021/12/07 05:45:37;;;;;;;34.58;16.83;;;;;;;;;;2084988;68;20796;-72
2021/12/07 05:48:22;;;;;;;31.55;17.20;;;;;;;;;;2090049;68;20344;-71
2021/12/07 05:51:08;;;;;;;31.67;15.13;;;;;;;;;;2083443;68;20180;-72
2021/12/07 05:53:49;;;;;;;43.00;18.98;;;;;;;;;;2095761;68;20719;-71
2021/12/07 05:56:31;;;;;;;29.00;15.82;;;;;;;;;;2097255;68;20266;-71
2021/12/07 05:59:14;;;;;;;33.17;16.60;;;;;;;;;;2083543;68;20989;-72
2021/12/07 06:01:56;;;;;;;32.33;15.10;;;;;;;;;;2071561;69;20780;-71
2021/12/07 06:04:38;;;;;;;32.00;15.30;;;;;;;;;;2075950;68;20178;-72
2021/12/07 06:07:20;;;;;;;27.40;14.52;;;;;;;;;;2085479;68;20533;-72
2021/12/07 06:10:02;;;;;;;27.65;14.90;;;;;;;;;;2090689;68;20223;-72
2021/12/07 06:12:44;;;;;;;27.48;12.75;;;;;;;;;;2092147;68;20315;-71
2021/12/07 06:15:31;;;;;;;22.90;13.38;;;;;;;;;;2076857;68;20342;-72
2021/12/07 06:18:14;;;;;;;28.48;14.38;;;;;;;;;;2073048;68;20351;-71
2021/12/07 06:20:56;;;;;;;18.55;11.55;;;;;;;;;;2084672;68;20822;-71
2021/12/07 06:23:38;;;;;;;32.28;15.13;;;;;;;;;;2085195;68;20215;-71
2021/12/07 06:26:20;;;;;;;25.70;13.52;;;;;;;;;;2089860;68;20329;-72
2021/12/07 06:29:03;;;;;;;24.20;13.65;;;;;;;;;;2090371;68;20838;-71
2021/12/07 06:31:45;;;;;;;28.92;15.52;;;;;;;;;;2076474;68;20315;-71
2021/12/07 06:34:27;;;;;;;26.15;12.60;;;;;;;;;;2069770;69;20254;-71
2021/12/07 06:37:09;;;;;;;28.15;14.07;;;;;;;;;;2065007;69;20202;-71
2021/12/07 06:39:50;;;;;;;31.30;13.70;;;;;;;;;;2069841;69;20295;-71
2021/12/07 06:42:32;;;;;;;33.78;15.65;;;;;;;;;;2069670;69;20181;-71
2021/12/07 06:45:14;;;;;;;27.80;12.57;;;;;;;;;;2072109;69;20323;-72
2021/12/07 06:47:57;;;;;;;25.10;12.63;;;;;;;;;;2083499;68;20206;-71
2021/12/07 06:50:38;;;;;;;20.70;10.93;;;;;;;;;;2083274;68;20321;-71
2021/12/07 06:53:20;;;;;;;29.45;13.77;;;;;;;;;;2076524;68;20814;-71
2021/12/07 06:56:03;;;;;;;19.70;11.65;;;;;;;;;;2073764;69;20338;-71
2021/12/07 06:58:46;;;;;;;19.30;11.02;;;;;;;;;;2089823;68;20533;-71
2021/12/07 07:01:27;;;;;;;27.85;12.48;;;;;;;;;;2084887;68;20863;-71
2021/12/07 07:04:11;;;;;;;23.48;12.07;;;;;;;;;;2102728;67;20258;-71
2021/12/07 07:06:53;;;;;;;20.83;11.98;;;;;;;;;;2110596;67;20338;-72
2021/12/07 07:09:35;;;;;;;28.35;11.45;;;;;;;;;;2083084;68;20294;-71
2021/12/07 07:12:18;;;;;;;24.90;11.88;;;;;;;;;;2080541;68;20370;-71
2021/12/07 07:15:00;;;;;;;26.15;11.93;;;;;;;;;;2089391;68;20681;-71
2021/12/07 07:17:42;;;;;;;20.15;11.13;;;;;;;;;;2082900;68;20337;-71
2021/12/07 07:20:24;;;;;;;18.58;11.00;;;;;;;;;;2081829;68;20418;-72
2021/12/07 07:23:07;;;;;;;26.13;10.82;;;;;;;;;;2077814;68;20184;-72
2021/12/07 07:25:49;;;;;;;23.85;11.90;;;;;;;;;;2071785;69;20278;-72
2021/12/07 07:28:31;;;;;;;23.75;11.55;;;;;;;;;;2082665;68;20180;-73
2021/12/07 07:31:13;;;;;;;19.67;10.55;;;;;;;;;;2078785;68;20181;-71
2021/12/07 07:33:58;;;;;;;22.88;11.43;;;;;;;;;;2085655;68;20727;-72
2021/12/07 07:36:39;;;;;;;24.83;12.13;;;;;;;;;;2091006;68;20248;-71
2021/12/07 07:39:21;;;;;;;24.58;11.27;;;;;;;;;;2096470;68;20266;-71
2021/12/07 07:42:03;;;;;;;23.05;11.13;;;;;;;;;;2103624;68;20786;-73
2021/12/07 07:44:45;;;;;;;26.50;11.57;;;;;;;;;;2103529;68;20415;-72
2021/12/07 07:47:27;;;;;;;22.40;12.35;;;;;;;;;;2103127;68;20232;-72
2021/12/07 07:50:10;;;;;;;25.20;12.68;;;;;;;;;;2117290;67;20405;-72
2021/12/07 07:52:52;;;;;;;34.70;14.68;;;;;;;;;;2123199;67;20325;-72
2021/12/07 07:55:38;;;;;;;30.02;14.52;;;;;;;;;;2123310;67;20429;-71
2021/12/07 07:58:23;;;;;;;24.73;12.43;;;;;;;;;;2118471;67;20273;-72
2021/12/07 08:01:06;;;;;;;28.30;13.43;;;;;;;;;;2108936;67;20253;-71
2021/12/07 08:03:48;;;;;;;28.02;13.52;;;;;;;;;;2113671;67;20247;-72
2021/12/07 08:06:30;;;;;;;29.35;13.25;;;;;;;;;;2112856;67;20281;-72
2021/12/07 08:09:13;;;;;;;24.00;12.60;;;;;;;;;;2103713;68;20189;-72
2021/12/07 08:11:57;;;;;;;28.23;14.73;;;;;;;;;;2109496;67;20348;-71
2021/12/07 08:14:40;;;;;;;25.92;13.38;;;;;;;;;;2109809;67;20215;-72
2021/12/07 08:17:22;;;;;;;25.25;12.85;;;;;;;;;;2112165;67;20813;-71
2021/12/07 08:20:05;;;;;;;27.25;12.65;;;;;;;;;;2096297;68;20198;-72
2021/12/07 08:22:47;;;;;;;20.00;11.60;;;;;;;;;;2089202;68;20345;-71
2021/12/07 08:25:30;;;;;;;31.13;13.93;;;;;;;;;;2095512;67;20312;-72
2021/12/07 08:28:14;;;;;;;28.75;14.60;;;;;;;;;;2104565;67;20340;-72
2021/12/07 08:30:56;;;;;;;24.73;12.57;;;;;;;;;;2099462;68;20320;-72
2021/12/07 08:33:38;;;;;;;32.97;14.48;;;;;;;;;;2090928;68;20370;-71
2021/12/07 08:36:20;;;;;;;27.52;12.10;;;;;;;;;;2090385;68;20327;-73
2021/12/07 08:39:02;;;;;;;22.40;11.23;;;;;;;;;;2088479;68;20176;-72
2021/12/07 08:41:44;;;;;;;33.10;12.65;;;;;;;;;;2083994;68;20345;-73
2021/12/07 08:44:26;;;;;;;24.90;12.13;;;;;;;;;;2066958;69;20647;-73
2021/12/07 08:47:07;;;;;;;22.98;11.15;;;;;;;;;;2077152;68;20228;-72
2021/12/07 08:49:50;;;;;;;28.90;12.05;;;;;;;;;;2086441;68;20332;-73
2021/12/07 08:52:32;;;;;;;24.02;10.85;;;;;;;;;;2095510;68;20688;-71
2021/12/07 09:00:56;;;;;;;23.40;11.27;;;;;;;;;;2102965;67;20931;-72
2021/12/07 09:03:38;;;;;;;27.38;11.77;;;;;;;;;;2100415;68;20333;-71
2021/12/07 09:06:21;;;;;;;24.45;11.40;;;;;;;;;;2097286;68;20175;-72
2021/12/07 09:09:02;;;;;;;18.08;10.70;;;;;;;;;;2080578;68;20193;-73
2021/12/07 09:11:44;;;;;;;25.08;11.93;;;;;;;;;;2082534;68;20325;-72
2021/12/07 09:14:29;;;;;;;23.17;10.88;;;;;;;;;;2090700;68;20253;-76
2021/12/07 09:17:12;;;;;;;19.08;10.30;;;;;;;;;;2085136;68;20289;-74
2021/12/07 09:19:54;;;;;;;22.10;10.02;;;;;;;;;;2095748;68;20256;-71
2021/12/07 09:22:36;;;;;;;22.85;11.10;;;;;;;;;;2085344;68;20640;-71
2021/12/07 09:25:18;;;;;;;16.27;8.77;;;;;;;;;;2094462;68;20322;-71
2021/12/07 09:28:10;;;;;;;26.35;10.20;;;;;;;;;;2108115;67;20336;-73
2021/12/07 09:30:52;;;;;;;21.70;10.02;;;;;;;;;;2119855;67;20265;-72
2021/12/07 09:33:36;;;;;;;14.15;7.75;;;;;;;;;;2128441;66;20533;-73
2021/12/07 09:36:18;;;;;;;18.33;9.05;;;;;;;;;;2127584;67;20272;-71
2021/12/07 09:39:00;;;;;;;16.13;9.13;;;;;;;;;;2117807;67;20189;-72
2021/12/07 09:41:45;;;;;;;19.52;8.80;;;;;;;;;;2112443;67;20271;-70
2021/12/07 09:44:28;;;;;;;17.80;8.98;;;;;;;;;;2125616;67;20286;-71
2021/12/07 09:47:10;;;;;;;18.77;8.25;;;;;;;;;;2118739;67;20309;-71
2021/12/07 09:49:52;;;;;;;17.45;8.40;;;;;;;;;;2137912;66;20194;-72
2021/12/07 09:52:37;;;;;;;19.05;9.30;;;;;;;;;;2134684;66;20662;-72
2021/12/07 09:55:19;;;;;;;20.42;8.20;;;;;;;;;;2136944;66;20212;-71
2021/12/07 09:58:00;;;;;;;18.23;7.70;;;;;;;;;;2139948;66;20179;-75
2021/12/07 10:00:43;;;;;;;24.15;9.52;;;;;;;;;;2138863;66;20331;-71
2021/12/07 10:03:25;;;;;;;20.90;9.05;;;;;;;;;;2145337;66;20335;-74
2021/12/07 10:06:07;;;;;;;17.98;8.35;;;;;;;;;;2139671;66;20200;-72
2021/12/07 10:08:49;;;;;;;21.38;8.55;;;;;;;;;;2134955;67;20231;-72
2021/12/07 10:11:31;;;;;;;19.00;8.00;;;;;;;;;;2113450;67;20270;-72
2021/12/07 10:14:13;;;;;;;13.35;7.13;;;;;;;;;;2118301;67;20417;-72
2021/12/07 10:17:04;;;;;;;15.40;7.75;;;;;;;;;;2105834;67;20390;-70
2021/12/07 10:19:50;;;;;;;17.02;7.70;;;;;;;;;;2095795;68;20263;-71
2021/12/07 10:22:42;;;;;;;16.75;8.88;;;;;;;;;;2089517;68;20966;-73
2021/12/07 10:25:25;;;;;;;20.48;9.15;;;;;;;;;;2077059;68;20373;-72
2021/12/07 10:28:24;;;;;;;16.05;7.45;;;;;;;;;;2071896;68;20277;-72
2021/12/07 10:31:11;;;;;;;13.45;6.35;;;;;;;;;;2081214;68;20177;-71
2021/12/07 10:34:02;;;;;;;12.88;6.50;;;;;;;;;;2081517;68;20375;-72
2021/12/07 10:36:43;;;;;;;15.48;7.35;;;;;;;;;;2082402;68;20240;-72
2021/12/07 10:39:26;;;;;;;19.40;6.57;;;;;;;;;;2090165;68;20339;-71
2021/12/07 10:42:09;;;;;;;16.80;6.20;;;;;;;;;;2101116;67;20348;-72
2021/12/07 10:44:51;;;;;;;19.10;6.82;;;;;;;;;;2102523;67;20346;-73
2021/12/07 10:47:36;;;;;;;12.68;6.18;;;;;;;;;;2106935;67;20398;-73
2021/12/07 10:50:19;;;;;;;13.07;5.95;;;;;;;;;;2107429;67;20262;-72
2021/12/07 10:53:02;;;;;;;13.23;5.50;;;;;;;;;;2102148;67;20319;-75
2021/12/07 10:55:44;;;;;;;25.88;7.30;;;;;;;;;;2100775;67;20593;-72
2021/12/07 10:58:30;;;;;;;11.45;4.90;;;;;;;;;;2098093;67;20722;-73
2021/12/07 11:01:12;;;;;;;18.58;6.07;;;;;;;;;;2084135;68;20229;-71
2021/12/07 11:04:13;;;;;;;10.23;5.30;;;;;;;;;;2076101;68;20502;-71
2021/12/07 11:07:27;;;;;;;15.98;5.95;;;;;;;;;;2083881;68;20320;-73
2021/12/07 11:10:22;;;;;;;17.95;5.35;;;;;;;;;;2076227;69;20357;-71
2021/12/07 11:15:53;;;;;;;9.75;4.97;;;;;;;;;;2086963;68;20358;-72
2021/12/07 11:18:36;;;;;;;13.68;4.90;;;;;;;;;;2076439;69;20326;-72
2021/12/07 11:21:20;;;;;;;11.85;4.75;;;;;;;;;;2075648;68;20232;-74
2021/12/07 11:24:02;;;;;;;11.45;4.68;;;;;;;;;;2074979;68;20217;-72
2021/12/07 11:29:47;;;;;;;8.07;4.60;;;;;;;;;;2070987;68;21307;-73
2021/12/07 11:32:29;;;;;;;8.32;3.80;;;;;;;;;;2090000;68;20336;-75
2021/12/07 11:35:13;;;;;;;12.25;4.70;;;;;;;;;;2093715;68;20254;-76
2021/12/07 11:37:56;;;;;;;9.15;4.35;;;;;;;;;;2082678;68;20424;-72
2021/12/07 11:40:39;;;;;;;12.00;4.07;;;;;;;;;;2071430;68;20229;-73
2021/12/07 11:43:21;;;;;;;7.32;3.53;;;;;;;;;;2065570;69;20284;-72
2021/12/07 11:46:03;;;;;;;7.60;3.15;;;;;;;;;;2070169;68;20189;-73
2021/12/07 11:48:45;;;;;;;12.05;4.35;;;;;;;;;;2079727;68;20191;-73
2021/12/07 11:51:27;;;;;;;8.00;3.35;;;;;;;;;;2093447;68;20205;-73
2021/12/07 11:54:08;;;;;;;9.45;4.15;;;;;;;;;;2090304;68;20176;-75
2021/12/07 11:56:51;;;;;;;10.02;3.88;;;;;;;;;;2091735;67;20874;-75
2021/12/07 11:59:36;;;;;;;8.73;4.47;;;;;;;;;;2104138;67;20240;-72
2021/12/07 12:02:23;;;;;;;9.60;3.83;;;;;;;;;;2102870;67;20449;-74
2021/12/07 12:05:05;;;;;;;6.72;3.78;;;;;;;;;;2118372;67;20334;-75
2021/12/07 12:07:49;;;;;;;11.40;4.32;;;;;;;;;;2118340;67;20357;-75
2021/12/07 12:10:31;;;;;;;8.90;4.05;;;;;;;;;;2129256;67;20201;-74
2021/12/07 12:13:17;;;;;;;8.68;3.80;;;;;;;;;;2125583;67;20322;-73
2021/12/07 12:16:02;;;;;;;9.75;3.92;;;;;;;;;;2118641;67;20244;-74
2021/12/07 12:18:52;;;;;;;12.82;4.38;;;;;;;;;;2112046;67;20268;-73
2021/12/07 12:21:41;;;;;;;9.90;4.70;;;;;;;;;;2112937;67;20366;-73
2021/12/07 12:24:26;;;;;;;8.45;4.18;;;;;;;;;;2115038;67;20325;-74
2021/12/07 12:27:16;;;;;;;12.38;4.30;;;;;;;;;;2112508;67;20264;-72
2021/12/07 12:29:58;;;;;;;9.82;4.05;;;;;;;;;;2105812;67;20237;-70
2021/12/07 12:32:43;;;;;;;11.15;3.67;;;;;;;;;;2102157;67;20220;-72
2021/12/07 12:35:29;;;;;;;13.70;3.80;;;;;;;;;;2090016;68;21496;-73
2021/12/07 12:38:26;;;;;;;6.95;3.08;;;;;;;;;;2099501;67;20339;-72
2021/12/07 12:41:12;;;;;;;7.05;2.90;;;;;;;;;;2097525;68;20163;-73
2021/12/07 12:43:55;;;;;;;7.40;3.03;;;;;;;;;;2088370;68;20466;-73
2021/12/07 12:46:37;;;;;;;6.63;2.90;;;;;;;;;;2084680;68;20176;-74
2021/12/07 12:49:19;;;;;;;9.60;3.20;;;;;;;;;;2100085;67;20343;-70
2021/12/07 12:52:01;;;;;;;7.28;3.00;;;;;;;;;;2104413;68;20835;-73
2021/12/07 12:54:45;;;;;;;8.95;2.83;;;;;;;;;;2088764;68;20733;-73
2021/12/07 12:57:27;;;;;;;8.73;3.00;;;;;;;;;;2076131;68;20269;-73
2021/12/07 13:00:09;;;;;;;7.03;2.85;;;;;;;;;;2083910;68;20353;-72
2021/12/07 13:02:53;;;;;;;7.88;2.88;;;;;;;;;;2083520;68;20334;-74
2021/12/07 13:05:36;;;;;;;10.60;3.53;;;;;;;;;;2071218;69;20487;-71
2021/12/07 13:08:18;;;;;;;10.88;3.45;;;;;;;;;;2067724;69;20330;-73
2021/12/07 13:11:01;;;;;;;8.32;3.17;;;;;;;;;;2076681;68;20675;-72
2021/12/07 13:13:48;;;;;;;10.70;3.42;;;;;;;;;;2071488;69;20248;-74
2021/12/07 13:16:33;;;;;;;6.80;3.53;;;;;;;;;;2065797;69;20202;-73
2021/12/07 13:19:15;;;;;;;10.77;3.25;;;;;;;;;;2072643;69;20214;-75
2021/12/07 13:22:03;;;;;;;8.15;3.42;;;;;;;;;;2077817;68;20197;-75
2021/12/07 13:24:46;;;;;;;11.07;3.60;;;;;;;;;;2059931;69;20285;-75
2021/12/07 13:27:28;;;;;;;10.25;3.67;;;;;;;;;;2082070;68;20198;-75
2021/12/07 13:30:10;;;;;;;9.73;3.50;;;;;;;;;;2090568;68;20250;-72
2021/12/07 13:33:05;;;;;;;10.70;3.95;;;;;;;;;;2089004;68;20757;-73
2021/12/07 13:35:50;;;;;;;8.13;3.58;;;;;;;;;;2090793;68;20229;-73
2021/12/07 13:38:33;;;;;;;6.85;3.85;;;;;;;;;;2098572;68;20361;-73
2021/12/07 13:41:14;;;;;;;14.20;4.15;;;;;;;;;;2101181;68;20186;-73
2021/12/07 13:43:56;;;;;;;8.07;3.60;;;;;;;;;;2098729;68;20289;-73
2021/12/07 13:46:38;;;;;;;9.50;3.90;;;;;;;;;;2097369;67;20569;-74
2021/12/07 13:49:20;;;;;;;9.43;3.78;;;;;;;;;;2120604;67;20267;-74
2021/12/07 13:52:02;;;;;;;12.90;4.63;;;;;;;;;;2124537;67;20234;-74
2021/12/07 13:54:45;;;;;;;10.93;3.75;;;;;;;;;;2121887;67;20369;-74
2021/12/07 13:57:34;;;;;;;11.73;3.90;;;;;;;;;;2111419;67;20466;-72
2021/12/07 14:00:16;;;;;;;10.05;5.07;;;;;;;;;;2119316;67;20303;-73
2021/12/07 14:03:03;;;;;;;8.68;4.15;;;;;;;;;;2125126;67;20272;-72
2021/12/07 14:05:46;;;;;;;8.57;4.55;;;;;;;;;;2124408;67;20202;-73
2021/12/07 14:08:31;;;;;;;9.13;4.05;;;;;;;;;;2125220;67;20686;-75
2021/12/07 14:11:14;;;;;;;8.18;4.63;;;;;;;;;;2104219;67;20186;-73
2021/12/07 14:13:55;;;;;;;7.97;4.57;;;;;;;;;;2110976;67;20190;-73
2021/12/07 14:16:37;;;;;;;11.55;5.63;;;;;;;;;;2103763;67;20264;-74
2021/12/07 14:19:19;;;;;;;8.43;4.43;;;;;;;;;;2098202;68;20363;-73
2021/12/07 14:22:03;;;;;;;7.88;4.88;;;;;;;;;;2090057;68;20359;-73
2021/12/07 14:24:45;;;;;;;11.52;5.38;;;;;;;;;;2096511;68;20316;-73
2021/12/07 14:27:27;;;;;;;15.77;6.28;;;;;;;;;;2096422;68;20398;-73
2021/12/07 14:30:12;;;;;;;9.82;5.40;;;;;;;;;;2083202;68;20946;-72
2021/12/07 14:32:54;;;;;;;11.32;4.93;;;;;;;;;;2096589;68;21388;-75
2021/12/07 14:35:36;;;;;;;11.70;4.78;;;;;;;;;;2096735;68;20281;-72
2021/12/07 14:38:17;;;;;;;14.13;5.78;;;;;;;;;;2096206;68;20680;-74
2021/12/07 14:41:04;;;;;;;10.77;5.18;;;;;;;;;;2114618;67;20790;-74
2021/12/07 14:43:46;;;;;;;12.23;4.82;;;;;;;;;;2100051;67;20230;-71
2021/12/07 14:46:28;;;;;;;12.25;5.35;;;;;;;;;;2096448;68;20340;-72
2021/12/07 14:49:10;;;;;;;11.15;5.53;;;;;;;;;;2091607;68;20345;-73
2021/12/07 14:51:53;;;;;;;8.85;4.90;;;;;;;;;;2110540;67;20280;-74
2021/12/07 14:54:37;;;;;;;13.82;5.47;;;;;;;;;;2100953;67;20238;-74
2021/12/07 14:57:21;;;;;;;12.73;5.20;;;;;;;;;;2110560;67;20216;-72
2021/12/07 15:00:08;;;;;;;11.73;6.07;;;;;;;;;;2115882;67;20270;-73
2021/12/07 15:02:50;;;;;;;10.52;5.57;;;;;;;;;;2131643;67;20316;-71
2021/12/07 15:05:33;;;;;;;9.80;5.70;;;;;;;;;;2118477;67;20279;-75
2021/12/07 15:08:15;;;;;;;11.00;5.85;;;;;;;;;;2111845;67;20380;-74
2021/12/07 15:10:58;;;;;;;10.85;5.85;;;;;;;;;;2110027;67;20228;-72
2021/12/07 15:13:41;;;;;;;14.90;6.80;;;;;;;;;;2093195;68;20265;-73
2021/12/07 15:16:22;;;;;;;14.25;7.22;;;;;;;;;;2098779;68;20308;-70
2021/12/07 15:19:05;;;;;;;11.45;5.68;;;;;;;;;;2099048;68;20334;-72
2021/12/07 15:21:47;;;;;;;13.68;6.63;;;;;;;;;;2099003;67;20186;-74
2021/12/07 15:24:32;;;;;;;13.18;6.80;;;;;;;;;;2095867;68;20247;-71
2021/12/07 15:27:11;;;;;;;14.68;8.50;;;;;;;;;;2095944;68;20178;-73
2021/12/07 15:30:01;;;;;;;19.05;7.85;;;;;;;;;;2096695;67;20228;-71
2021/12/07 15:32:37;;;;;;;16.02;8.38;;;;;;;;;;2110809;67;20291;-72
2021/12/07 15:35:26;;;;;;;14.35;7.63;;;;;;;;;;2098254;68;20175;-72
2021/12/07 15:38:30;;;;;;;21.13;8.48;;;;;;;;;;2102585;67;20190;-76
2021/12/07 15:41:21;;;;;;;14.43;8.60;;;;;;;;;;2111945;67;20203;-74
2021/12/07 15:43:58;;;;;;;13.90;8.05;;;;;;;;;;2116790;67;20268;-73
2021/12/07 15:46:52;;;;;;;16.38;8.32;;;;;;;;;;2119494;67;20195;-74
2021/12/07 15:49:34;;;;;;;17.92;9.52;;;;;;;;;;2135172;66;20197;-71
2021/12/07 15:52:25;;;;;;;24.70;10.75;;;;;;;;;;2143463;66;20244;-73
2021/12/07 15:55:04;;;;;;;23.40;10.00;;;;;;;;;;2157815;66;20218;-73
2021/12/07 15:57:48;;;;;;;21.23;10.00;;;;;;;;;;2159452;66;20161;-74
2021/12/07 16:00:30;;;;;;;19.05;10.30;;;;;;;;;;2172786;65;20209;-73
2021/12/07 16:03:29;;;;;;;21.10;10.88;;;;;;;;;;2161739;66;20278;-74
2021/12/07 16:06:15;;;;;;;19.50;10.70;;;;;;;;;;2165040;65;20591;-72
2021/12/07 16:08:52;;;;;;;18.90;10.48;;;;;;;;;;2167769;65;20668;-74
2021/12/07 16:11:30;;;;;;;18.17;10.57;;;;;;;;;;2167194;65;20860;-73
2021/12/07 16:14:08;;;;;;;19.90;11.10;;;;;;;;;;2168703;65;20502;-73
2021/12/07 16:16:46;;;;;;;17.95;11.07;;;;;;;;;;2169404;65;20227;-74
2021/12/07 16:19:23;;;;;;;19.00;10.77;;;;;;;;;;2167223;65;20344;-74
2021/12/07 16:22:00;;;;;;;26.70;11.85;;;;;;;;;;2177379;65;20242;-75
2021/12/07 16:24:36;;;;;;;22.73;11.40;;;;;;;;;;2197145;65;20197;-71
2021/12/07 16:27:23;;;;;;;18.70;11.93;;;;;;;;;;2194290;65;20309;-72
2021/12/07 16:30:07;;;;;;;19.85;11.98;;;;;;;;;;2181768;65;20822;-72
2021/12/07 16:32:49;;;;;;;21.15;10.63;;;;;;;;;;2167382;65;20194;-71
2021/12/07 16:35:32;;;;;;;25.05;12.45;;;;;;;;;;2152920;66;20197;-72
2021/12/07 16:38:14;;;;;;;21.73;12.10;;;;;;;;;;2140602;66;20280;-69
2021/12/07 16:40:56;;;;;;;20.42;12.43;;;;;;;;;;2138915;66;20807;-72
2021/12/07 16:43:38;;;;;;;21.50;11.27;;;;;;;;;;2123697;67;20342;-71
2021/12/07 16:46:44;;;;;;;23.00;12.65;;;;;;;;;;2120843;67;20287;-72
2021/12/07 16:49:27;;;;;;;22.92;12.55;;;;;;;;;;2121761;67;20348;-71
2021/12/07 16:52:22;;;;;;;24.05;12.95;;;;;;;;;;2112124;67;20185;-75
2021/12/07 16:55:06;;;;;;;25.98;12.85;;;;;;;;;;2104054;67;20192;-70
2021/12/07 16:57:49;;;;;;;23.40;13.07;;;;;;;;;;2108640;67;20289;-74
2021/12/07 17:00:37;;;;;;;26.65;13.65;;;;;;;;;;2111116;67;20264;-73
2021/12/07 17:03:19;;;;;;;23.33;13.30;;;;;;;;;;2110244;67;20300;-73
2021/12/07 17:06:01;;;;;;;21.23;14.15;;;;;;;;;;2104363;67;20734;-72
2021/12/07 17:08:46;;;;;;;21.80;13.02;;;;;;;;;;2105025;67;20185;-73
2021/12/07 17:11:31;;;;;;;23.27;14.20;;;;;;;;;;2101288;67;20247;-73
2021/12/07 17:14:14;;;;;;;29.40;14.45;;;;;;;;;;2101204;67;20174;-70
2021/12/07 17:16:55;;;;;;;24.27;14.68;;;;;;;;;;2099460;68;20203;-70
2021/12/07 17:19:38;;;;;;;26.75;15.15;;;;;;;;;;2099556;68;20344;-70
2021/12/07 17:22:19;;;;;;;30.58;15.07;;;;;;;;;;2102467;68;20194;-69
2021/12/07 17:25:02;;;;;;;28.60;15.02;;;;;;;;;;2105958;67;20178;-70
2021/12/07 17:27:44;;;;;;;29.70;15.98;;;;;;;;;;2095524;68;20675;-69
2021/12/07 17:30:28;;;;;;;29.20;16.27;;;;;;;;;;2107120;67;20246;-70